Time;durP1;ratioP1;P1;durP2;ratioP2;P2;SDS_P1;SDS_P2;PMS_P1;PMS_P2;Temp;Humidity;BMP_temperature;BMP_pressure;BME280_temperature;BME280_humidity;BME280_pressure;Samples;Min_cycle;Max_cycle;Signal;HPM_P1;HPM_P2
2022/12/11 00:06:42;;;;;;;17.2;9.1;;;;;;;1.2;92.1;97500;;;;
2022/12/11 00:16:43;;;;;;;17.2;9.1;;;;;;;1.1;91.8;97500;;;;
2022/12/11 00:27:42;;;;;;;17.2;9.1;;;;;;;1.2;91.7;97480;;;;
2022/12/11 00:37:42;;;;;;;14.5;7.5;;;;;;;1;91.6;97480;;;;
2022/12/11 00:47:43;;;;;;;14.5;7.5;;;;;;;1.1;91.7;97470;;;;
2022/12/11 00:57:42;;;;;;;14.5;7.5;;;;;;;1.1;91.5;97470;;;;
2022/12/11 01:08:43;;;;;;;14.5;8.1;;;;;;;1.1;91.4;97470;;;;
2022/12/11 01:18:42;;;;;;;14.5;8.1;;;;;;;0.9;91.5;97470;;;;
2022/12/11 01:28:43;;;;;;;14.5;8.1;;;;;;;0.9;91.6;97460;;;;
2022/12/11 01:39:43;;;;;;;14;7.1;;;;;;;1;91.7;97470;;;;
2022/12/11 01:49:42;;;;;;;14;7.1;;;;;;;1;91.6;97460;;;;
2022/12/11 01:59:43;;;;;;;14;7.1;;;;;;;1.1;91.5;97450;;;;
2022/12/11 02:10:42;;;;;;;15.2;7.5;;;;;;;1.1;91.4;97440;;;;
2022/12/11 02:20:42;;;;;;;15.2;7.5;;;;;;;1;91.2;97440;;;;
2022/12/11 02:31:42;;;;;;;15.2;7.5;;;;;;;0.9;91.2;97430;;;;
2022/12/11 02:41:43;;;;;;;12.3;7.6;;;;;;;1;91.2;97430;;;;
2022/12/11 02:52:43;;;;;;;12.3;7.6;;;;;;;0.9;91.2;97420;;;;
2022/12/11 03:03:42;;;;;;;11.6;6.2;;;;;;;0.8;91.3;97420;;;;
2022/12/11 03:14:42;;;;;;;11.6;6.2;;;;;;;0.8;91.3;97410;;;;
2022/12/11 03:24:43;;;;;;;11.6;6.2;;;;;;;0.8;91.1;97400;;;;
2022/12/11 03:34:43;;;;;;;9.9;6;;;;;;;0.8;91.1;97400;;;;
2022/12/11 03:45:43;;;;;;;9.9;6;;;;;;;0.6;91.2;97390;;;;
2022/12/11 03:56:42;;;;;;;9.9;6;;;;;;;0.5;91.4;97390;;;;
2022/12/11 04:07:44;;;;;;;10.6;6.2;;;;;;;0.6;91.5;97390;;;;
2022/12/11 04:27:50;;;;;;;10.6;6.2;;;;;;;0.5;91.4;97380;;;;
2022/12/11 04:37:42;;;;;;;10.4;4.7;;;;;;;0.4;91.6;97380;;;;
2022/12/11 04:47:43;;;;;;;10.4;4.7;;;;;;;0.4;91.8;97380;;;;
2022/12/11 04:58:43;;;;;;;10.4;4.7;;;;;;;0.2;91.5;97370;;;;
2022/12/11 05:09:43;;;;;;;10.8;5.2;;;;;;;0.4;91.8;97370;;;;
2022/12/11 05:19:43;;;;;;;10.8;5.2;;;;;;;0.5;91.9;97350;;;;
2022/12/11 05:29:43;;;;;;;10.8;5.2;;;;;;;0.2;91.4;97350;;;;
2022/12/11 05:39:42;;;;;;;8.9;4.7;;;;;;;0.3;91.6;97350;;;;
2022/12/11 05:50:43;;;;;;;8.9;4.7;;;;;;;0.5;91.8;97340;;;;
2022/12/11 06:00:43;;;;;;;8.9;4.7;;;;;;;0.1;91.3;97320;;;;
2022/12/11 06:11:43;;;;;;;11.3;6;;;;;;;0.1;91.5;97330;;;;
2022/12/11 06:21:43;;;;;;;11.3;6;;;;;;;0.1;91.6;97330;;;;
2022/12/11 06:32:43;;;;;;;13;5.9;;;;;;;0.1;91.6;97350;;;;
2022/12/11 06:42:43;;;;;;;13;5.9;;;;;;;0.2;91.8;97360;;;;
2022/12/11 06:53:43;;;;;;;13;5.9;;;;;;;0.2;91.7;97360;;;;
2022/12/11 07:03:43;;;;;;;12.1;6.4;;;;;;;0.1;91.3;97360;;;;
2022/12/11 07:14:43;;;;;;;12.1;6.4;;;;;;;0.1;91.3;97370;;;;
2022/12/11 07:25:43;;;;;;;12.1;6.4;;;;;;;0.2;91.3;97380;;;;
2022/12/11 07:36:43;;;;;;;9.5;5.6;;;;;;;0.2;91;97370;;;;
2022/12/11 07:46:42;;;;;;;9.5;5.6;;;;;;;0.1;90.7;97380;;;;
2022/12/11 07:56:43;;;;;;;9.5;5.6;;;;;;;0.1;90.7;97380;;;;
2022/12/11 08:07:43;;;;;;;9.4;5.3;;;;;;;0.2;90.6;97380;;;;
2022/12/11 08:18:43;;;;;;;9.4;5.3;;;;;;;0.1;90;97380;;;;
2022/12/11 08:29:43;;;;;;;9.4;5.3;;;;;;;0.2;90.1;97390;;;;
2022/12/11 08:39:43;;;;;;;11.9;5.7;;;;;;;0.2;90.2;97380;;;;
2022/12/11 08:49:43;;;;;;;11.9;5.7;;;;;;;0.2;89.6;97380;;;;
2022/12/11 09:00:43;;;;;;;11.9;5.7;;;;;;;0.4;89.6;97390;;;;
2022/12/11 09:10:43;;;;;;;10.7;6;;;;;;;0.6;89.7;97390;;;;
2022/12/11 09:20:43;;;;;;;10.7;6;;;;;;;0.7;89.3;97400;;;;
2022/12/11 09:31:43;;;;;;;13.2;7.2;;;;;;;0.7;87.9;97390;;;;
2022/12/11 09:42:43;;;;;;;13.2;7.2;;;;;;;0.8;87.6;97370;;;;
2022/12/11 09:53:43;;;;;;;13.2;7.2;;;;;;;1.3;87.8;97360;;;;
2022/12/11 10:03:43;;;;;;;13.7;7.4;;;;;;;1.6;86.2;97360;;;;
2022/12/11 10:13:44;;;;;;;13.7;7.4;;;;;;;1.6;85.4;97360;;;;
2022/12/11 10:24:43;;;;;;;13.7;7.4;;;;;;;1.8;84.6;97360;;;;
2022/12/11 10:35:43;;;;;;;15.8;8.7;;;;;;;1.7;85.4;97360;;;;
2022/12/11 10:45:43;;;;;;;15.8;8.7;;;;;;;1.3;84.9;97360;;;;
2022/12/11 10:55:43;;;;;;;15.8;8.7;;;;;;;1;85.5;97350;;;;
2022/12/11 11:05:43;;;;;;;17.3;8.8;;;;;;;0.9;85.8;97350;;;;
2022/12/11 11:15:43;;;;;;;17.3;8.8;;;;;;;1.1;85.4;97340;;;;
2022/12/11 11:26:43;;;;;;;17.3;8.8;;;;;;;0.5;86.1;97340;;;;
2022/12/11 11:37:43;;;;;;;13.8;7.7;;;;;;;0.3;87.9;97340;;;;
2022/12/11 11:47:43;;;;;;;13.8;7.7;;;;;;;0.6;88.1;97340;;;;
2022/12/11 11:58:43;;;;;;;13.8;7.7;;;;;;;0.2;88.1;97330;;;;
2022/12/11 12:08:43;;;;;;;17.4;8.6;;;;;;;-0.1;88;97340;;;;
2022/12/11 12:19:43;;;;;;;17.4;8.6;;;;;;;-0.1;88.5;97350;;;;
2022/12/11 12:29:43;;;;;;;17.4;8.6;;;;;;;-0.3;87.9;97340;;;;
2022/12/11 12:39:43;;;;;;;17.7;10;;;;;;;-0.1;88.6;97340;;;;
2022/12/11 12:50:43;;;;;;;17.7;10;;;;;;;-0.3;87.7;97340;;;;
2022/12/11 13:01:43;;;;;;;15.6;10.2;;;;;;;-0.5;87.7;97350;;;;
2022/12/11 13:11:43;;;;;;;15.6;10.2;;;;;;;-0.4;88.8;97370;;;;
2022/12/11 13:22:43;;;;;;;15.6;10.2;;;;;;;-0.4;89.1;97390;;;;
2022/12/11 13:33:43;;;;;;;18.2;11;;;;;;;-0.7;89.2;97390;;;;
2022/12/11 13:44:43;;;;;;;18.2;11;;;;;;;-0.8;89.6;97400;;;;
2022/12/11 13:54:43;;;;;;;18.2;11;;;;;;;-0.9;89.6;97400;;;;
2022/12/11 14:04:43;;;;;;;20.7;10.5;;;;;;;-0.9;89.8;97400;;;;
2022/12/11 14:15:43;;;;;;;20.7;10.5;;;;;;;-0.9;89.9;97400;;;;
2022/12/11 14:25:43;;;;;;;20.7;10.5;;;;;;;-1;90;97400;;;;
2022/12/11 14:36:43;;;;;;;18.6;10;;;;;;;-0.9;90.5;97420;;;;
2022/12/11 14:47:43;;;;;;;18.6;10;;;;;;;-1.1;91.1;97410;;;;
2022/12/11 14:57:43;;;;;;;18.6;10;;;;;;;-1.3;91.1;97410;;;;
2022/12/11 15:08:43;;;;;;;25.8;12.9;;;;;;;-1.2;91.3;97420;;;;
2022/12/11 15:18:43;;;;;;;25.8;12.9;;;;;;;-1.3;90.5;97430;;;;
2022/12/11 15:29:43;;;;;;;25.8;12.9;;;;;;;-1.3;90.8;97440;;;;
2022/12/11 15:40:43;;;;;;;29.4;14.8;;;;;;;-1.3;91;97460;;;;
2022/12/11 15:50:43;;;;;;;29.4;14.8;;;;;;;-1.2;91;97470;;;;
2022/12/11 16:01:43;;;;;;;21;13.2;;;;;;;-1.3;91.1;97470;;;;
2022/12/11 16:12:43;;;;;;;21;13.2;;;;;;;-1.4;90.8;97480;;;;
2022/12/11 16:23:43;;;;;;;21;13.2;;;;;;;-1.5;90.4;97480;;;;
2022/12/11 16:33:43;;;;;;;23.9;12.1;;;;;;;-1.4;90.4;97480;;;;
2022/12/11 16:43:43;;;;;;;23.9;12.1;;;;;;;-1.4;90.6;97480;;;;
2022/12/11 16:54:43;;;;;;;23.9;12.1;;;;;;;-1.4;90.6;97470;;;;
2022/12/11 17:04:43;;;;;;;29.2;17.2;;;;;;;-1.4;90.6;97470;;;;
2022/12/11 17:14:43;;;;;;;29.2;17.2;;;;;;;-1.6;90.1;97480;;;;
2022/12/11 17:25:43;;;;;;;29.2;17.2;;;;;;;-1.7;89.9;97480;;;;
2022/12/11 17:35:43;;;;;;;23.2;13.7;;;;;;;-1.7;90.2;97480;;;;
2022/12/11 17:46:43;;;;;;;23.2;13.7;;;;;;;-1.9;90.2;97500;;;;
2022/12/11 17:56:43;;;;;;;23.2;13.7;;;;;;;-1.9;90.6;97510;;;;
2022/12/11 18:06:43;;;;;;;26.8;14.7;;;;;;;-2;90.6;97520;;;;
2022/12/11 18:17:43;;;;;;;26.8;14.7;;;;;;;-2;90.7;97520;;;;
2022/12/11 18:27:43;;;;;;;26.8;14.7;;;;;;;-2;90.9;97520;;;;
2022/12/11 18:37:43;;;;;;;24.6;14.8;;;;;;;-1.9;90.8;97510;;;;
2022/12/11 18:48:43;;;;;;;24.6;14.8;;;;;;;-2.1;90.3;97510;;;;
2022/12/11 18:58:43;;;;;;;24.6;14.8;;;;;;;-2.1;90.3;97510;;;;
2022/12/11 19:09:43;;;;;;;24.1;14.9;;;;;;;-2.1;90.7;97510;;;;
2022/12/11 19:20:43;;;;;;;24.1;14.9;;;;;;;-2.2;90.5;97510;;;;
2022/12/11 19:31:43;;;;;;;36.8;16.3;;;;;;;-2.2;90.3;97510;;;;
2022/12/11 19:41:43;;;;;;;36.8;16.3;;;;;;;-2.2;90.2;97500;;;;
2022/12/11 19:52:43;;;;;;;36.8;16.3;;;;;;;-2.3;89.6;97500;;;;
2022/12/11 20:03:43;;;;;;;31.9;17;;;;;;;-2.3;89;97500;;;;
2022/12/11 20:14:43;;;;;;;31.9;17;;;;;;;-2.4;89;97500;;;;
2022/12/11 20:24:43;;;;;;;31.9;17;;;;;;;-2.4;89.2;97510;;;;
2022/12/11 20:35:43;;;;;;;23.9;12.7;;;;;;;-2.6;89;97520;;;;
2022/12/11 20:45:43;;;;;;;23.9;12.7;;;;;;;-2.5;89.2;97520;;;;
2022/12/11 20:56:43;;;;;;;23.9;12.7;;;;;;;-2.7;89;97510;;;;
2022/12/11 21:06:43;;;;;;;25.8;14.5;;;;;;;-2.8;88.8;97510;;;;
2022/12/11 21:17:43;;;;;;;25.8;14.5;;;;;;;-2.7;89.1;97510;;;;
2022/12/11 21:27:43;;;;;;;25.8;14.5;;;;;;;-2.7;89.4;97520;;;;
2022/12/11 21:37:43;;;;;;;28.1;15.7;;;;;;;-2.6;89.4;97530;;;;
2022/12/11 21:47:43;;;;;;;28.1;15.7;;;;;;;-2.5;89.3;97530;;;;
2022/12/11 21:58:43;;;;;;;28.1;15.7;;;;;;;-2.5;89.2;97540;;;;
2022/12/11 22:08:44;;;;;;;23.9;14;;;;;;;-2.6;89;97530;;;;
2022/12/11 22:19:43;;;;;;;23.9;14;;;;;;;-2.5;89;97530;;;;
2022/12/11 22:29:43;;;;;;;24.3;15.4;;;;;;;-2.5;88.7;97520;;;;
2022/12/11 22:40:43;;;;;;;24.3;15.4;;;;;;;-2.7;88.3;97520;;;;
2022/12/11 22:50:43;;;;;;;24.3;15.4;;;;;;;-2.7;88.2;97520;;;;
2022/12/11 23:00:43;;;;;;;23.7;12.3;;;;;;;-2.6;88.2;97520;;;;
2022/12/11 23:11:43;;;;;;;23.7;12.3;;;;;;;-2.6;87.9;97510;;;;
2022/12/11 23:22:43;;;;;;;23.7;12.3;;;;;;;-2.6;88;97510;;;;
2022/12/11 23:32:43;;;;;;;20;11.2;;;;;;;-2.6;88.4;97520;;;;
2022/12/11 23:42:43;;;;;;;20;11.2;;;;;;;-2.6;88.3;97520;;;;
2022/12/11 23:53:43;;;;;;;20;11.2;;;;;;;-2.6;88.4;97520;;;;
